createdAt,value
2022-12-13T00:02:01.196Z,-2.15
2022-12-13T00:04:30.016Z,-2.13
2022-12-13T00:06:58.568Z,-2.12
2022-12-13T00:09:27.223Z,-2.12
2022-12-13T00:11:55.830Z,-2.12
2022-12-13T00:14:24.348Z,-2.12
2022-12-13T00:16:52.954Z,-2.12
2022-12-13T00:19:21.502Z,-2.12
2022-12-13T00:21:50.094Z,-2.12
2022-12-13T00:24:18.699Z,-2.13
2022-12-13T00:26:47.254Z,-2.12
2022-12-13T00:29:15.846Z,-2.13
2022-12-13T00:31:59.303Z,-2.13
2022-12-13T00:34:30.249Z,-2.12
2022-12-13T00:36:59.382Z,-2.12
2022-12-13T00:39:28.749Z,-2.12
2022-12-13T00:41:58.049Z,-2.14
2022-12-13T00:44:26.957Z,-2.14
2022-12-13T00:46:56.616Z,-2.16
2022-12-13T00:49:25.269Z,-2.15
2022-12-13T00:51:53.906Z,-2.16
2022-12-13T00:54:22.549Z,-2.15
2022-12-13T00:56:51.656Z,-2.15
2022-12-13T00:59:20.381Z,-2.15
2022-12-13T01:01:49.081Z,-2.15
2022-12-13T01:04:17.722Z,-2.15
2022-12-13T01:06:50.064Z,-2.15
2022-12-13T01:09:31.060Z,-2.15
2022-12-13T01:12:02.626Z,-2.15
2022-12-13T01:14:32.213Z,-2.14
2022-12-13T01:17:00.904Z,-2.15
2022-12-13T01:19:29.626Z,-2.15
2022-12-13T01:22:01.260Z,-2.16
2022-12-13T01:24:31.592Z,-2.16
2022-12-13T01:27:00.573Z,-2.17
2022-12-13T01:29:29.345Z,-2.17
2022-12-13T01:31:57.872Z,-2.19
2022-12-13T01:34:27.733Z,-2.19
2022-12-13T01:36:58.199Z,-2.21
2022-12-13T01:39:28.087Z,-2.22
2022-12-13T01:42:00.241Z,-2.22
2022-12-13T01:44:57.249Z,-2.23
2022-12-13T01:47:43.861Z,-2.24
2022-12-13T01:50:21.194Z,-2.25
2022-12-13T01:52:50.496Z,-2.27
2022-12-13T01:55:22.594Z,-2.27
2022-12-13T01:57:53.759Z,-2.27
2022-12-13T02:00:22.465Z,-2.27
2022-12-13T02:02:51.530Z,-2.28
2022-12-13T02:05:24.625Z,-2.28
2022-12-13T02:07:53.723Z,-2.28
2022-12-13T02:10:22.389Z,-2.28
2022-12-13T02:12:51.219Z,-2.28
2022-12-13T02:15:20.969Z,-2.28
2022-12-13T02:18:27.366Z,-2.28
2022-12-13T02:21:28.866Z,-2.28
2022-12-13T02:24:12.405Z,-2.28
2022-12-13T02:27:17.002Z,-2.29
2022-12-13T02:30:01.993Z,-2.31
2022-12-13T02:33:09.045Z,-2.32
2022-12-13T02:36:07.486Z,-2.34
2022-12-13T02:38:49.225Z,-2.35
2022-12-13T02:41:29.846Z,-2.36
2022-12-13T02:44:22.731Z,-2.36
2022-12-13T02:47:05.854Z,-2.37
2022-12-13T02:49:48.361Z,-2.39
2022-12-13T02:52:22.662Z,-2.40
2022-12-13T02:54:53.760Z,-2.42
2022-12-13T02:57:38.834Z,-2.43
2022-12-13T03:00:12.515Z,-2.46
2022-12-13T03:02:56.947Z,-2.47
2022-12-13T03:06:04.296Z,-2.49
2022-12-13T03:09:10.602Z,-2.50
2022-12-13T03:12:32.467Z,-2.53
2022-12-13T03:15:18.058Z,-2.56
2022-12-13T03:18:17.839Z,-2.59
2022-12-13T03:20:57.090Z,-2.61
2022-12-13T03:23:27.327Z,-2.63
2022-12-13T03:26:01.677Z,-2.65
2022-12-13T03:28:30.233Z,-2.68
2022-12-13T03:30:58.894Z,-2.71
2022-12-13T03:33:27.631Z,-2.74
2022-12-13T03:35:56.674Z,-2.76
2022-12-13T03:38:25.932Z,-2.78
2022-12-13T03:41:01.100Z,-2.82
2022-12-13T03:43:30.041Z,-2.86
2022-12-13T03:45:58.649Z,-2.89
2022-12-13T03:48:27.639Z,-2.93
2022-12-13T03:50:56.963Z,-2.97
2022-12-13T03:53:33.374Z,-3.01
2022-12-13T03:56:06.417Z,-3.05
2022-12-13T03:58:38.117Z,-3.11
2022-12-13T04:01:17.052Z,-3.17
2022-12-13T04:03:47.450Z,-3.21
2022-12-13T04:06:21.733Z,-3.27
2022-12-13T04:08:53.045Z,-3.33
2022-12-13T04:11:43.106Z,-3.37
2022-12-13T04:14:12.372Z,-3.43
2022-12-13T04:16:52.492Z,-3.51
2022-12-13T04:19:23.126Z,-3.57
2022-12-13T04:21:54.427Z,-3.63
2022-12-13T04:24:31.630Z,-3.69
2022-12-13T04:27:02.019Z,-3.74
2022-12-13T04:29:33.895Z,-3.79
2022-12-13T04:32:26.101Z,-3.83
2022-12-13T04:35:01.338Z,-3.88
2022-12-13T04:37:43.448Z,-3.93
2022-12-13T04:40:12.584Z,-3.96
2022-12-13T04:42:41.137Z,-3.98
2022-12-13T04:45:15.965Z,-3.99
2022-12-13T04:47:44.965Z,-3.99
2022-12-13T04:50:13.499Z,-3.99
2022-12-13T04:52:42.141Z,-3.98
2022-12-13T04:55:10.985Z,-3.97
2022-12-13T04:57:40.341Z,-3.96
2022-12-13T05:00:13.381Z,-3.95
2022-12-13T05:02:42.461Z,-3.93
2022-12-13T05:05:11.984Z,-3.90
2022-12-13T05:07:42.094Z,-3.87
2022-12-13T05:10:12.056Z,-3.83
2022-12-13T05:12:40.582Z,-3.78
2022-12-13T05:15:09.484Z,-3.74
2022-12-13T05:17:38.025Z,-3.70
2022-12-13T05:20:07.048Z,-3.66
2022-12-13T05:22:35.777Z,-3.65
2022-12-13T05:25:06.957Z,-3.61
2022-12-13T05:27:35.498Z,-3.57
2022-12-13T05:30:05.417Z,-3.55
2022-12-13T05:32:44.120Z,-3.51
2022-12-13T05:35:21.774Z,-3.49
2022-12-13T05:37:53.548Z,-3.45
2022-12-13T05:40:29.119Z,-3.44
2022-12-13T05:43:01.169Z,-3.42
2022-12-13T05:45:32.592Z,-3.39
2022-12-13T05:48:01.954Z,-3.35
2022-12-13T05:50:30.777Z,-3.31
2022-12-13T05:52:59.285Z,-3.28
2022-12-13T05:55:27.822Z,-3.25
2022-12-13T05:58:02.513Z,-3.21
2022-12-13T06:00:31.498Z,-3.18
2022-12-13T06:03:01.890Z,-3.16
2022-12-13T06:05:31.513Z,-3.14
2022-12-13T06:08:00.708Z,-3.11
2022-12-13T06:10:34.940Z,-3.09
2022-12-13T06:13:21.776Z,-3.06
2022-12-13T06:16:01.304Z,-3.03
2022-12-13T06:18:33.216Z,-3.01
2022-12-13T06:21:07.244Z,-2.98
2022-12-13T06:23:36.449Z,-2.95
2022-12-13T06:26:07.329Z,-2.92
2022-12-13T06:28:36.138Z,-2.89
2022-12-13T06:31:05.446Z,-2.85
2022-12-13T06:33:38.446Z,-2.83
2022-12-13T06:36:07.836Z,-2.80
2022-12-13T06:38:43.373Z,-2.77
2022-12-13T06:41:16.756Z,-2.73
2022-12-13T06:43:46.874Z,-2.70
2022-12-13T06:46:16.100Z,-2.69
2022-12-13T06:48:45.126Z,-2.68
2022-12-13T06:51:22.959Z,-2.68
2022-12-13T06:53:51.806Z,-2.68
2022-12-13T06:57:40.753Z,-2.65
2022-12-13T07:00:12.515Z,-2.67
2022-12-13T07:02:41.122Z,-2.67
2022-12-13T07:05:10.930Z,-2.66
2022-12-13T07:07:39.564Z,-2.65
2022-12-13T07:10:12.646Z,-2.65
2022-12-13T07:12:50.836Z,-2.66
2022-12-13T07:15:19.376Z,-2.65
2022-12-13T07:17:52.377Z,-2.65
2022-12-13T07:20:22.773Z,-2.65
2022-12-13T07:22:58.843Z,-2.67
2022-12-13T07:25:29.720Z,-2.68
2022-12-13T07:28:02.947Z,-2.69
2022-12-13T07:30:41.148Z,-2.69
2022-12-13T07:33:11.542Z,-2.71
2022-12-13T07:35:41.348Z,-2.74
2022-12-13T07:38:11.829Z,-2.76
2022-12-13T07:40:41.555Z,-2.78
2022-12-13T07:43:10.249Z,-2.81
2022-12-13T07:45:38.817Z,-2.81
2022-12-13T07:48:08.878Z,-2.81
2022-12-13T07:50:38.085Z,-2.78
2022-12-13T07:53:08.557Z,-2.74
2022-12-13T07:55:38.326Z,-2.67
2022-12-13T07:58:15.724Z,-2.56
2022-12-13T08:00:46.925Z,-2.47
2022-12-13T08:03:25.571Z,-2.40
2022-12-13T08:06:08.780Z,-2.35
2022-12-13T08:08:38.466Z,-2.32
2022-12-13T08:11:11.247Z,-2.30
2022-12-13T08:13:41.124Z,-2.29
2022-12-13T08:16:27.506Z,-2.32
2022-12-13T08:19:02.658Z,-2.34
2022-12-13T08:21:58.325Z,-2.36
2022-12-13T08:24:31.057Z,-2.39
2022-12-13T08:27:03.081Z,-2.41
2022-12-13T08:29:36.773Z,-2.41
2022-12-13T08:32:10.588Z,-2.39
2022-12-13T08:34:41.608Z,-2.34
2022-12-13T08:37:10.207Z,-2.32
2022-12-13T08:39:39.975Z,-2.31
2022-12-13T08:42:15.885Z,-2.32
2022-12-13T08:44:50.890Z,-2.26
2022-12-13T08:47:25.231Z,-2.22
2022-12-13T08:50:01.360Z,-2.14
2022-12-13T08:52:40.705Z,-1.93
2022-12-13T08:55:15.513Z,-1.71
2022-12-13T08:57:45.373Z,-1.58
2022-12-13T09:00:18.339Z,-1.49
2022-12-13T09:02:47.188Z,-1.37
2022-12-13T09:05:33.517Z,-1.30
2022-12-13T09:08:23.018Z,-1.13
2022-12-13T09:11:01.311Z,-1.04
2022-12-13T09:13:43.400Z,-1.02
2022-12-13T09:16:25.845Z,-1.03
2022-12-13T09:18:55.223Z,-1.05
2022-12-13T09:21:30.975Z,-1.06
2022-12-13T09:24:02.176Z,-1.09
2022-12-13T09:26:38.470Z,-1.11
2022-12-13T09:29:10.331Z,-1.12
2022-12-13T09:31:40.991Z,-1.14
2022-12-13T09:34:11.573Z,-1.16
2022-12-13T09:36:40.301Z,-1.19
2022-12-13T09:39:11.952Z,-1.19
2022-12-13T09:41:53.134Z,-1.19
2022-12-13T09:45:02.236Z,-1.20
2022-12-13T09:47:39.317Z,-1.20
2022-12-13T09:50:37.658Z,-1.21
2022-12-13T09:53:12.067Z,-1.23
2022-12-13T09:55:52.516Z,-1.23
2022-12-13T09:58:28.051Z,-1.20
2022-12-13T10:00:57.792Z,-1.11
2022-12-13T10:03:27.468Z,-1.05
2022-12-13T10:06:02.307Z,-1.03
2022-12-13T10:08:37.424Z,-1.03
2022-12-13T10:11:06.446Z,-1.04
2022-12-13T10:14:01.424Z,-0.99
2022-12-13T10:16:37.238Z,-0.89
2022-12-13T10:19:35.375Z,-0.86
2022-12-13T10:22:09.541Z,-0.88
2022-12-13T10:24:48.902Z,-0.84
2022-12-13T10:27:33.608Z,-0.80
2022-12-13T10:30:28.561Z,-0.72
2022-12-13T10:33:04.876Z,-0.66
2022-12-13T10:35:41.717Z,-0.64
2022-12-13T10:38:16.769Z,-0.69
2022-12-13T10:40:46.770Z,-0.74
2022-12-13T10:43:15.384Z,-0.75
2022-12-13T10:45:59.573Z,-0.72
2022-12-13T10:48:50.737Z,-0.65
2022-12-13T10:51:23.024Z,-0.58
2022-12-13T10:54:00.773Z,-0.46
2022-12-13T10:56:51.501Z,-0.36
2022-12-13T10:59:31.202Z,-0.25
2022-12-13T11:02:01.876Z,-0.13
2022-12-13T11:04:35.294Z,-0.05
2022-12-13T11:07:32.431Z,0.00
2022-12-13T11:10:27.593Z,0.10
2022-12-13T11:13:06.459Z,0.22
2022-12-13T11:15:38.725Z,0.48
2022-12-13T11:18:23.609Z,0.69
2022-12-13T11:21:02.865Z,0.89
2022-12-13T11:23:45.927Z,1.02
2022-12-13T11:26:24.743Z,1.13
2022-12-13T11:29:15.955Z,1.19
2022-12-13T11:32:05.912Z,1.19
2022-12-13T11:35:09.396Z,1.25
2022-12-13T11:38:02.537Z,1.23
2022-12-13T11:40:40.140Z,1.09
2022-12-13T11:43:36.430Z,0.90
2022-12-13T11:46:22.431Z,0.65
2022-12-13T11:49:01.499Z,0.50
2022-12-13T11:52:06.012Z,0.35
2022-12-13T11:54:46.493Z,0.18
2022-12-13T11:57:45.261Z,0.07
2022-12-13T12:00:59.674Z,-0.03
2022-12-13T12:03:45.733Z,-0.15
2022-12-13T12:06:29.751Z,-0.30
2022-12-13T12:09:09.896Z,-0.46
2022-12-13T12:12:00.243Z,-0.58
2022-12-13T12:14:50.023Z,-0.66
2022-12-13T12:17:25.668Z,-0.71
2022-12-13T12:19:57.654Z,-0.71
2022-12-13T12:22:44.684Z,-0.67
2022-12-13T12:25:36.383Z,-0.60
2022-12-13T12:28:31.782Z,-0.51
2022-12-13T12:31:17.143Z,-0.41
2022-12-13T12:34:43.302Z,-0.36
2022-12-13T12:38:04.813Z,-0.31
2022-12-13T12:41:24.849Z,-0.23
2022-12-13T12:44:17.324Z,-0.20
2022-12-13T12:50:27.366Z,-0.33
2022-12-13T12:53:34.246Z,-0.45
2022-12-13T12:56:34.406Z,-0.60
2022-12-13T12:59:42.856Z,-0.77
2022-12-13T13:02:25.955Z,-0.89
2022-12-13T13:05:09.679Z,-0.99
2022-12-13T13:07:51.373Z,-1.06
2022-12-13T13:10:26.341Z,-1.09
2022-12-13T13:13:12.445Z,-1.12
2022-12-13T13:15:41.777Z,-1.13
2022-12-13T13:18:49.484Z,-1.13
2022-12-13T13:21:23.817Z,-1.16
2022-12-13T13:24:01.473Z,-1.16
2022-12-13T13:26:45.311Z,-1.17
2022-12-13T13:29:33.358Z,-1.19
2022-12-13T13:32:11.403Z,-1.20
2022-12-13T13:34:48.475Z,-1.23
2022-12-13T13:37:26.123Z,-1.28
2022-12-13T13:39:59.324Z,-1.34
2022-12-13T13:42:32.940Z,-1.39
2022-12-13T13:45:22.768Z,-1.45
2022-12-13T13:48:49.467Z,-1.53
2022-12-13T13:56:00.121Z,-1.73
2022-12-13T13:58:51.418Z,-1.81
2022-12-13T14:02:01.027Z,-1.85
2022-12-13T14:05:26.851Z,-1.89
2022-12-13T14:08:20.303Z,-1.96
2022-12-13T14:11:07.892Z,-2.02
2022-12-13T14:14:00.846Z,-2.06
2022-12-13T14:17:00.413Z,-2.12
2022-12-13T14:20:24.658Z,-2.18
2022-12-13T14:23:27.045Z,-2.26
2022-12-13T14:26:32.510Z,-2.34
2022-12-13T14:29:10.601Z,-2.41
2022-12-13T14:31:49.813Z,-2.47
2022-12-13T14:34:33.120Z,-2.53
2022-12-13T14:37:20.530Z,-2.60
2022-12-13T14:39:49.349Z,-2.68
2022-12-13T14:42:33.903Z,-2.74
2022-12-13T14:45:37.026Z,-2.81
2022-12-13T14:48:16.229Z,-2.89
2022-12-13T14:50:58.073Z,-2.95
2022-12-13T14:53:39.400Z,-3.00
2022-12-13T14:56:28.863Z,-3.08
2022-12-13T14:59:12.424Z,-3.14
2022-12-13T15:01:41.497Z,-3.20
2022-12-13T15:04:26.945Z,-3.27
2022-12-13T15:07:09.486Z,-3.34
2022-12-13T15:09:43.107Z,-3.41
2022-12-13T15:12:23.872Z,-3.47
2022-12-13T15:15:02.767Z,-3.53
2022-12-13T15:17:38.958Z,-3.62
2022-12-13T15:20:31.953Z,-3.74
2022-12-13T15:23:15.057Z,-3.89
2022-12-13T15:25:44.558Z,-4.02
2022-12-13T15:28:18.130Z,-4.14
2022-12-13T15:30:51.019Z,-4.27
2022-12-13T15:33:30.490Z,-4.38
2022-12-13T15:36:16.993Z,-4.52
2022-12-13T15:38:57.509Z,-4.69
2022-12-13T15:41:31.073Z,-4.87
2022-12-13T15:44:17.257Z,-4.97
2022-12-13T15:46:50.292Z,-5.05
2022-12-13T15:49:38.453Z,-5.11
2022-12-13T15:52:19.927Z,-5.22
2022-12-13T15:55:12.839Z,-5.43
2022-12-13T15:57:57.520Z,-5.57
2022-12-13T16:00:34.761Z,-5.67
2022-12-13T16:03:16.288Z,-5.75
2022-12-13T16:20:07.640Z,-6.14
2022-12-13T16:22:37.862Z,-6.24
2022-12-13T16:25:06.826Z,-6.33
2022-12-13T16:27:37.624Z,-6.45
2022-12-13T16:30:22.680Z,-6.59
2022-12-13T16:35:40.483Z,-6.75
2022-12-13T16:38:12.128Z,-6.75
2022-12-13T16:41:08.230Z,-6.77
2022-12-13T16:43:58.612Z,-6.82
2022-12-13T16:47:14.235Z,-6.88
2022-12-13T16:49:28.772Z,-6.91
2022-12-13T16:51:57.617Z,-6.92
2022-12-13T16:54:26.519Z,-6.94
2022-12-13T16:56:55.200Z,-6.98
2022-12-13T16:59:26.272Z,-7.04
2022-12-13T17:01:55.288Z,-7.14
2022-12-13T17:04:24.909Z,-7.27
2022-12-13T17:06:54.745Z,-7.37
2022-12-13T17:09:25.293Z,-7.41
2022-12-13T17:11:54.006Z,-7.47
2022-12-13T17:14:22.719Z,-7.57
2022-12-13T17:16:51.354Z,-7.68
2022-12-13T17:19:20.108Z,-7.78
2022-12-13T17:21:48.697Z,-7.87
2022-12-13T17:33:17.524Z,-8.19
2022-12-13T17:35:47.368Z,-8.24
2022-12-13T17:38:16.185Z,-8.24
2022-12-13T17:40:47.550Z,-8.23
2022-12-13T17:43:33.060Z,-8.21
2022-12-13T17:46:07.447Z,-8.20
2022-12-13T17:48:40.673Z,-8.24
2022-12-13T17:51:11.831Z,-8.28
2022-12-13T17:53:43.068Z,-8.33
2022-12-13T17:56:16.026Z,-8.37
2022-12-13T17:58:45.229Z,-8.42
2022-12-13T18:01:17.437Z,-8.47
2022-12-13T18:03:47.975Z,-8.49
2022-12-13T18:06:16.903Z,-8.48
2022-12-13T18:08:46.897Z,-8.45
2022-12-13T18:11:34.895Z,-8.45
2022-12-13T18:14:06.559Z,-8.43
2022-12-13T18:16:38.650Z,-8.42
2022-12-13T18:19:12.002Z,-8.41
2022-12-13T18:21:43.235Z,-8.40
2022-12-13T18:24:12.507Z,-8.40
2022-12-13T18:26:41.217Z,-8.43
2022-12-13T18:29:09.914Z,-8.46
2022-12-13T18:31:38.594Z,-8.48
2022-12-13T18:34:08.500Z,-8.51
2022-12-13T18:36:37.527Z,-8.51
2022-12-13T18:39:07.047Z,-8.54
2022-12-13T18:41:35.610Z,-8.56
2022-12-13T18:44:10.386Z,-8.55
2022-12-13T18:46:42.223Z,-8.53
2022-12-13T18:49:13.544Z,-8.51
2022-12-13T18:51:42.171Z,-8.50
2022-12-13T18:54:10.831Z,-8.48
2022-12-13T18:56:39.440Z,-8.47
2022-12-13T18:59:08.277Z,-8.45
2022-12-13T19:01:36.846Z,-8.43
2022-12-13T19:04:05.632Z,-8.40
2022-12-13T19:06:34.408Z,-8.39
2022-12-13T19:09:03.165Z,-8.36
2022-12-13T19:11:31.753Z,-8.34
2022-12-13T19:14:00.353Z,-8.32
2022-12-13T19:16:29.069Z,-8.30
2022-12-13T19:18:58.214Z,-8.29
2022-12-13T19:21:27.584Z,-8.27
2022-12-13T19:23:58.331Z,-8.26
2022-12-13T19:26:29.226Z,-8.24
2022-12-13T19:28:59.388Z,-8.23
2022-12-13T19:31:32.120Z,-8.21
2022-12-13T19:34:03.742Z,-8.18
2022-12-13T19:36:32.938Z,-8.16
2022-12-13T19:39:01.672Z,-8.14
2022-12-13T19:41:32.425Z,-8.13
2022-12-13T19:44:04.809Z,-8.13
2022-12-13T19:46:34.023Z,-8.13
2022-12-13T19:49:02.794Z,-8.14
2022-12-13T19:51:37.530Z,-8.14
2022-12-13T19:54:08.061Z,-8.16
2022-12-13T19:56:36.835Z,-8.17
2022-12-13T19:59:05.440Z,-8.19
2022-12-13T20:01:34.191Z,-8.20
2022-12-13T20:04:02.797Z,-8.22
2022-12-13T20:06:31.393Z,-8.22
2022-12-13T20:08:59.908Z,-8.23
2022-12-13T20:11:28.507Z,-8.22
2022-12-13T20:13:57.444Z,-8.22
2022-12-13T20:16:27.404Z,-8.23
2022-12-13T20:18:58.883Z,-8.22
2022-12-13T20:21:29.523Z,-8.22
2022-12-13T20:23:58.419Z,-8.21
2022-12-13T20:26:31.918Z,-8.19
2022-12-13T20:29:00.659Z,-8.18
2022-12-13T20:31:35.180Z,-8.19
2022-12-13T20:34:10.071Z,-8.20
2022-12-13T20:36:38.775Z,-8.21
2022-12-13T20:39:08.564Z,-8.22
2022-12-13T20:41:37.639Z,-8.22
2022-12-13T20:44:08.950Z,-8.21
2022-12-13T20:46:37.948Z,-8.18
2022-12-13T20:49:09.392Z,-8.15
2022-12-13T20:51:41.488Z,-8.09
2022-12-13T20:54:10.632Z,-8.02
2022-12-13T20:56:39.989Z,-7.93
2022-12-13T20:59:12.940Z,-7.85
2022-12-13T21:01:44.008Z,-7.77
2022-12-13T21:04:20.043Z,-7.71
2022-12-13T21:06:48.740Z,-7.67
2022-12-13T21:09:18.206Z,-7.65
2022-12-13T21:11:48.960Z,-7.62
2022-12-13T21:14:25.316Z,-7.62
2022-12-13T21:17:00.227Z,-7.62
2022-12-13T21:19:39.092Z,-7.65
2022-12-13T21:22:08.785Z,-7.69
2022-12-13T21:24:37.290Z,-7.73
2022-12-13T21:27:05.857Z,-7.77
2022-12-13T21:29:34.400Z,-7.80
2022-12-13T21:32:03.210Z,-7.82
2022-12-13T21:34:33.087Z,-7.85
2022-12-13T21:37:01.598Z,-7.87
2022-12-13T21:39:31.075Z,-7.89
2022-12-13T21:41:59.625Z,-7.92
2022-12-13T21:44:28.560Z,-7.95
2022-12-13T21:47:13.431Z,-7.98
2022-12-13T21:49:48.540Z,-8.01
2022-12-13T21:52:17.795Z,-8.05
2022-12-13T21:54:46.461Z,-8.10
2022-12-13T21:57:33.673Z,-8.15
2022-12-13T22:00:02.476Z,-8.19
2022-12-13T22:02:31.371Z,-8.24
2022-12-13T22:05:00.049Z,-8.28
2022-12-13T22:07:33.797Z,-8.31
2022-12-13T22:10:02.862Z,-8.34
2022-12-13T22:12:38.531Z,-8.38
2022-12-13T22:15:13.741Z,-8.41
2022-12-13T22:17:43.229Z,-8.45
2022-12-13T22:20:15.497Z,-8.49
2022-12-13T22:22:45.575Z,-8.55
2022-12-13T22:25:14.250Z,-8.63
2022-12-13T22:27:43.231Z,-8.72
2022-12-13T22:30:12.102Z,-8.80
2022-12-13T22:32:40.665Z,-8.89
2022-12-13T22:35:09.441Z,-8.96
2022-12-13T22:37:39.668Z,-9.03
2022-12-13T22:40:09.287Z,-9.09
2022-12-13T22:42:37.903Z,-9.13
2022-12-13T22:45:07.266Z,-9.18
2022-12-13T22:47:35.779Z,-9.23
2022-12-13T22:50:04.787Z,-9.27
2022-12-13T22:52:34.158Z,-9.31
2022-12-13T22:55:02.937Z,-9.37
2022-12-13T22:57:31.458Z,-9.40
2022-12-13T23:00:00.002Z,-9.43
2022-12-13T23:02:28.630Z,-9.45
2022-12-13T23:04:57.236Z,-9.46
2022-12-13T23:07:25.710Z,-9.49
2022-12-13T23:09:54.267Z,-9.52
2022-12-13T23:12:41.496Z,-9.54
2022-12-13T23:15:10.515Z,-9.57
2022-12-13T23:17:39.069Z,-9.59
2022-12-13T23:20:08.865Z,-9.60
2022-12-13T23:22:37.406Z,-9.62
2022-12-13T23:25:06.631Z,-9.63
2022-12-13T23:27:35.223Z,-9.65
2022-12-13T23:30:04.329Z,-9.68
2022-12-13T23:32:32.878Z,-9.71
2022-12-13T23:35:01.374Z,-9.73
2022-12-13T23:37:29.975Z,-9.77
2022-12-13T23:39:58.644Z,-9.79
2022-12-13T23:42:30.339Z,-9.80
2022-12-13T23:44:58.843Z,-9.82
2022-12-13T23:47:27.366Z,-9.83
2022-12-13T23:49:55.875Z,-9.84
2022-12-13T23:52:24.391Z,-9.85
2022-12-13T23:54:52.943Z,-9.85
2022-12-13T23:57:21.455Z,-9.86
2022-12-13T23:59:49.950Z,-9.87
